Time;durP1;ratioP1;P1;durP2;ratioP2;P2;SDS_P1;SDS_P2;PMS_P1;PMS_P2;Temp;Humidity;BMP_temperature;BMP_pressure;BME280_temperature;BME280_humidity;BME280_pressure;Samples;Min_cycle;Max_cycle;Signal;HPM_P1;HPM_P2
2022/06/22 00:00:36;;;;;;;19.23;7.78;;;19.10;99.90;;;;;;5112700;28;20044;-64
2022/06/22 00:03:05;;;;;;;14.68;7.25;;;19.10;99.90;;;;;;5107289;28;20047;-64
2022/06/22 00:05:52;;;;;;;13.77;7.57;;;19.10;99.90;;;;;;5104135;28;20044;-64
2022/06/22 00:08:22;;;;;;;19.50;8.30;;;19.20;99.90;;;;;;5111664;28;20055;-64
2022/06/22 00:10:51;;;;;;;16.23;7.78;;;19.10;99.90;;;;;;5112323;28;20043;-64
2022/06/22 00:13:23;;;;;;;15.93;7.93;;;19.20;99.90;;;;;;5084609;28;20036;-64
2022/06/22 00:15:56;;;;;;;17.50;7.93;;;19.10;99.90;;;;;;5104224;28;20047;-64
2022/06/22 00:18:45;;;;;;;17.75;8.20;;;19.10;99.90;;;;;;5112791;28;20555;-64
2022/06/22 00:21:31;;;;;;;21.77;8.52;;;19.10;99.90;;;;;;5102122;28;20067;-64
2022/06/22 00:24:00;;;;;;;17.77;9.18;;;19.10;99.90;;;;;;5112126;28;20067;-64
2022/06/22 00:26:34;;;;;;;16.35;8.48;;;19.10;99.90;;;;;;5112330;28;20044;-64
2022/06/22 00:29:05;;;;;;;20.90;8.55;;;19.00;99.90;;;;;;5086002;28;20044;-64
2022/06/22 00:31:39;;;;;;;16.65;9.15;;;19.00;99.90;;;;;;5103371;28;20033;-65
2022/06/22 00:34:09;;;;;;;18.98;8.45;;;18.90;99.90;;;;;;5112020;28;20054;-64
2022/06/22 00:36:38;;;;;;;19.00;7.85;;;18.90;99.90;;;;;;5106248;28;20044;-64
2022/06/22 00:39:28;;;;;;;20.98;8.88;;;19.00;99.90;;;;;;5103778;28;20545;-64
2022/06/22 00:41:56;;;;;;;15.50;9.45;;;19.00;99.90;;;;;;5099051;28;20066;-64
2022/06/22 00:44:28;;;;;;;15.10;8.70;;;18.90;99.90;;;;;;5111331;28;20266;-64
2022/06/22 00:47:14;;;;;;;12.75;7.85;;;18.90;99.90;;;;;;5102465;28;20461;-64
2022/06/22 00:49:45;;;;;;;19.75;7.80;;;18.90;99.90;;;;;;5111971;28;20097;-64
2022/06/22 00:52:24;;;;;;;19.40;7.30;;;18.90;99.90;;;;;;5111695;28;20442;-63
2022/06/22 00:54:51;;;;;;;15.85;7.00;;;18.80;99.90;;;;;;5102080;28;20051;-64
2022/06/22 00:57:34;;;;;;;19.13;7.40;;;18.80;99.90;;;;;;5106344;28;20058;-64
2022/06/22 01:00:13;;;;;;;15.98;6.60;;;18.90;99.90;;;;;;5111977;28;20036;-64
2022/06/22 01:02:49;;;;;;;15.32;6.43;;;18.90;99.90;;;;;;5102156;28;20077;-64
2022/06/22 01:05:40;;;;;;;14.95;7.07;;;18.90;99.90;;;;;;5087520;28;20035;-64
2022/06/22 01:08:14;;;;;;;11.90;6.60;;;18.90;99.90;;;;;;5112021;28;20066;-64
2022/06/22 01:10:58;;;;;;;13.48;6.88;;;18.90;99.90;;;;;;5102806;28;20187;-64
2022/06/22 01:13:45;;;;;;;17.10;6.50;;;18.90;99.90;;;;;;5106970;28;20058;-64
2022/06/22 01:16:20;;;;;;;15.30;6.85;;;18.90;99.90;;;;;;5111727;28;20050;-64
2022/06/22 01:19:02;;;;;;;14.48;6.50;;;18.80;99.90;;;;;;5102797;28;20035;-64
2022/06/22 01:21:37;;;;;;;13.65;6.22;;;18.70;99.90;;;;;;5107017;28;20051;-65
2022/06/22 01:24:22;;;;;;;17.40;7.75;;;18.70;99.90;;;;;;5111643;28;20051;-64
2022/06/22 01:27:37;;;;;;;16.67;6.88;;;18.80;99.90;;;;;;5102802;28;20051;-64
2022/06/22 01:30:35;;;;;;;14.27;7.00;;;18.80;99.90;;;;;;5070316;28;20472;-64
2022/06/22 01:33:08;;;;;;;16.40;8.10;;;18.70;99.90;;;;;;5071255;28;20382;-64
2022/06/22 01:35:37;;;;;;;15.30;6.90;;;18.70;99.90;;;;;;5078523;28;20097;-64
2022/06/22 01:38:22;;;;;;;15.65;7.38;;;18.60;99.90;;;;;;5091647;28;20111;-65
2022/06/22 01:41:04;;;;;;;18.13;7.75;;;18.60;99.90;;;;;;5090975;28;20055;-64
2022/06/22 01:43:39;;;;;;;17.60;7.57;;;18.70;99.90;;;;;;5073191;28;20052;-64
2022/06/22 01:46:12;;;;;;;17.83;6.97;;;18.60;99.90;;;;;;5109623;22;20090;-63
2022/06/22 01:48:48;;;;;;;17.02;7.20;;;18.60;99.90;;;;;;5103411;28;20047;-63
2022/06/22 01:51:35;;;;;;;16.10;7.05;;;18.60;99.90;;;;;;5112806;28;20051;-64
2022/06/22 01:54:15;;;;;;;12.38;7.18;;;18.70;99.90;;;;;;5097768;28;20139;-63
2022/06/22 01:57:06;;;;;;;18.05;7.63;;;18.60;99.90;;;;;;5092578;28;20051;-64
2022/06/22 01:59:56;;;;;;;18.00;8.23;;;18.60;99.90;;;;;;5095715;28;20048;-64
2022/06/22 02:02:32;;;;;;;16.65;7.13;;;18.50;99.90;;;;;;5093185;28;20040;-63
2022/06/22 02:05:05;;;;;;;12.82;6.82;;;18.50;99.90;;;;;;5094918;28;20040;-64
2022/06/22 02:07:46;;;;;;;16.17;8.25;;;18.40;99.90;;;;;;5094751;28;20058;-66
2022/06/22 02:10:28;;;;;;;17.73;7.20;;;18.50;99.90;;;;;;5089973;28;20036;-64
2022/06/22 02:13:00;;;;;;;14.98;7.13;;;18.50;99.90;;;;;;5094606;28;20549;-64
2022/06/22 02:15:39;;;;;;;14.77;6.85;;;18.40;99.90;;;;;;5094962;28;20221;-64
2022/06/22 02:18:23;;;;;;;18.75;6.47;;;18.40;99.90;;;;;;5094579;28;20051;-63
2022/06/22 02:20:52;;;;;;;22.00;7.40;;;18.40;99.90;;;;;;5092710;28;20052;-63
2022/06/22 02:23:34;;;;;;;21.45;7.85;;;18.40;99.90;;;;;;5094649;28;20089;-66
2022/06/22 02:26:04;;;;;;;16.35;7.57;;;18.40;99.90;;;;;;5094514;28;20101;-65
2022/06/22 02:28:31;;;;;;;15.93;7.40;;;18.30;99.90;;;;;;5087637;28;20628;-64
2022/06/22 02:30:59;;;;;;;22.40;7.53;;;18.30;99.90;;;;;;5093703;28;20070;-65
2022/06/22 02:33:27;;;;;;;16.42;7.13;;;18.30;99.90;;;;;;5094541;28;20381;-65
2022/06/22 02:35:57;;;;;;;14.98;6.68;;;18.30;99.90;;;;;;5094372;28;20056;-63
2022/06/22 02:38:24;;;;;;;18.90;7.30;;;18.30;99.90;;;;;;5086274;28;20032;-65
2022/06/22 02:46:33;;;;;;;15.23;5.57;;;18.40;99.90;;;;;;5090684;28;20044;-65
2022/06/22 02:49:05;;;;;;;19.38;6.57;;;18.50;99.90;;;;;;5076395;28;20052;-65
2022/06/22 02:51:41;;;;;;;12.55;5.85;;;18.50;99.90;;;;;;5075488;28;20423;-64
2022/06/22 02:54:27;;;;;;;17.55;6.10;;;18.50;99.90;;;;;;5089249;28;20090;-65
2022/06/22 02:57:17;;;;;;;15.55;6.07;;;18.40;99.90;;;;;;5092659;28;20044;-65
2022/06/22 02:59:45;;;;;;;10.85;6.22;;;18.40;99.90;;;;;;5093655;28;20480;-65
2022/06/22 03:02:11;;;;;;;17.42;7.00;;;18.40;99.90;;;;;;5093482;28;20496;-65
2022/06/22 03:04:40;;;;;;;17.63;6.68;;;18.40;99.90;;;;;;5088833;28;20048;-65
2022/06/22 03:07:07;;;;;;;13.55;6.20;;;18.40;99.90;;;;;;5094063;28;20048;-65
2022/06/22 03:09:36;;;;;;;12.32;6.25;;;18.30;99.90;;;;;;5093630;28;20098;-65
2022/06/22 03:12:04;;;;;;;13.93;7.13;;;18.30;99.90;;;;;;5092961;28;20036;-64
2022/06/22 03:14:50;;;;;;;16.30;6.10;;;18.30;99.90;;;;;;5086980;28;20396;-65
2022/06/22 03:17:22;;;;;;;17.33;6.07;;;18.20;99.90;;;;;;5087497;28;20036;-65
2022/06/22 03:19:54;;;;;;;17.48;5.90;;;18.20;99.90;;;;;;5093264;28;20138;-64
2022/06/22 03:22:29;;;;;;;13.48;5.90;;;18.20;99.90;;;;;;5091094;28;20118;-65
2022/06/22 03:25:06;;;;;;;17.40;5.72;;;18.10;99.90;;;;;;5092732;28;20062;-65
2022/06/22 03:27:37;;;;;;;16.15;5.75;;;18.10;99.90;;;;;;5093471;28;20055;-64
2022/06/22 03:30:27;;;;;;;11.02;5.18;;;18.10;99.90;;;;;;5092830;28;20047;-64
2022/06/22 03:33:08;;;;;;;10.93;4.57;;;18.10;99.90;;;;;;5092087;28;20119;-65
2022/06/22 03:35:45;;;;;;;12.40;5.47;;;18.00;99.90;;;;;;5092770;28;20413;-64
2022/06/22 03:38:16;;;;;;;15.25;5.47;;;18.00;99.90;;;;;;5093296;28;20083;-64
2022/06/22 03:40:58;;;;;;;10.25;4.60;;;18.10;99.90;;;;;;5089437;28;20392;-64
2022/06/22 03:43:33;;;;;;;15.43;5.45;;;18.00;99.90;;;;;;5092986;28;20056;-64
2022/06/22 03:46:15;;;;;;;10.57;4.72;;;18.00;99.90;;;;;;5092624;28;20048;-64
2022/06/22 03:48:53;;;;;;;14.30;4.90;;;17.90;99.90;;;;;;5091268;28;20382;-64
2022/06/22 03:51:24;;;;;;;14.45;5.07;;;18.00;99.90;;;;;;5092338;28;20040;-64
2022/06/22 03:53:59;;;;;;;11.90;4.90;;;18.10;99.90;;;;;;5093111;28;20044;-64
2022/06/22 03:56:33;;;;;;;13.93;4.57;;;18.10;99.90;;;;;;5091766;28;20496;-64
2022/06/22 03:59:02;;;;;;;14.77;5.25;;;18.10;99.90;;;;;;5092283;28;20572;-64
2022/06/22 04:01:29;;;;;;;11.60;4.63;;;18.00;99.90;;;;;;5092277;28;20097;-64
2022/06/22 04:03:56;;;;;;;;;;;18.10;99.90;;;;;;5093041;28;20468;-64
2022/06/22 04:06:34;;;;;;;7.70;4.97;;;18.00;99.90;;;;;;5091647;28;20276;-64
2022/06/22 04:09:06;;;;;;;12.75;5.05;;;18.00;99.90;;;;;;5083410;28;20039;-64
2022/06/22 04:11:40;;;;;;;12.00;4.78;;;18.00;99.90;;;;;;5092043;28;20105;-64
2022/06/22 04:14:27;;;;;;;10.32;4.95;;;18.00;99.90;;;;;;5092563;28;20036;-63
2022/06/22 04:16:59;;;;;;;11.57;4.63;;;18.00;99.90;;;;;;5091128;28;20535;-63
2022/06/22 04:19:41;;;;;;;12.23;5.40;;;18.00;99.90;;;;;;5092330;28;20043;-63
2022/06/22 04:22:17;;;;;;;15.68;5.22;;;18.00;99.90;;;;;;5092059;28;20047;-64
2022/06/22 04:24:57;;;;;;;12.27;5.28;;;18.00;99.90;;;;;;5089592;28;20036;-64
2022/06/22 04:27:34;;;;;;;11.02;5.75;;;18.00;99.90;;;;;;5092274;28;20048;-64
2022/06/22 04:30:11;;;;;;;20.73;5.95;;;18.00;99.90;;;;;;5092023;28;20047;-64
2022/06/22 04:32:44;;;;;;;17.87;5.43;;;17.90;99.90;;;;;;5088948;28;20061;-64
2022/06/22 04:35:36;;;;;;;13.55;5.63;;;18.00;99.90;;;;;;5091806;28;20286;-64
2022/06/22 04:38:29;;;;;;;12.32;5.38;;;18.10;99.90;;;;;;5092082;28;20040;-64
2022/06/22 04:41:01;;;;;;;13.48;5.65;;;18.20;99.90;;;;;;5078925;28;20500;-64
2022/06/22 04:43:28;;;;;;;16.77;5.63;;;18.30;99.90;;;;;;5092078;28;20554;-63
2022/06/22 04:45:55;;;;;;;;;;;18.30;99.90;;;;;;5092118;28;20036;-64
2022/06/22 04:48:27;;;;;;;11.88;5.20;;;18.40;99.90;;;;;;5088905;28;19942;-64
2022/06/22 04:50:58;;;;;;;18.23;5.32;;;18.50;99.90;;;;;;5091256;28;20044;-64
2022/06/22 04:53:33;;;;;;;14.18;5.78;;;18.50;99.90;;;;;;5091874;28;20062;-64
2022/06/22 04:56:11;;;;;;;11.93;4.80;;;18.60;99.90;;;;;;5091634;28;20052;-64
2022/06/22 04:58:47;;;;;;;10.55;5.25;;;18.50;99.90;;;;;;5088307;28;20109;-64
2022/06/22 05:01:21;;;;;;;13.10;5.00;;;18.60;99.90;;;;;;5091004;28;20036;-63
2022/06/22 05:03:49;;;;;;;12.98;4.82;;;18.60;99.90;;;;;;5091576;28;20078;-64
2022/06/22 05:06:23;;;;;;;15.05;5.28;;;18.60;99.90;;;;;;5086386;28;20064;-64
2022/06/22 05:08:59;;;;;;;15.00;5.13;;;18.60;99.90;;;;;;5089860;28;20047;-64
2022/06/22 05:11:33;;;;;;;11.05;5.10;;;18.70;99.90;;;;;;5090906;28;20636;-64
2022/06/22 05:14:01;;;;;;;13.63;5.18;;;18.70;99.90;;;;;;5073358;28;20048;-64
2022/06/22 05:16:32;;;;;;;17.15;5.45;;;18.70;99.90;;;;;;5086591;28;20048;-64
2022/06/22 05:19:00;;;;;;;12.45;5.50;;;18.80;99.90;;;;;;5091085;28;20441;-64
2022/06/22 05:21:36;;;;;;;12.38;5.15;;;18.90;99.90;;;;;;5090883;28;20044;-64
2022/06/22 05:24:18;;;;;;;12.07;5.38;;;19.00;99.90;;;;;;5091447;28;20052;-64
2022/06/22 05:26:47;;;;;;;15.30;5.70;;;19.10;99.90;;;;;;5084794;28;20443;-64
2022/06/22 05:29:26;;;;;;;16.45;5.30;;;19.20;99.90;;;;;;5091107;28;20081;-64
2022/06/22 05:31:58;;;;;;;14.68;4.97;;;19.20;99.90;;;;;;5091235;28;20048;-64
2022/06/22 05:34:32;;;;;;;11.07;5.10;;;19.30;99.90;;;;;;5069003;28;20101;-64
2022/06/22 05:37:31;;;;;;;13.00;4.18;;;19.70;99.90;;;;;;5091327;28;20039;-64
2022/06/22 05:39:59;;;;;;;9.45;4.90;;;19.70;99.90;;;;;;5075220;28;20067;-64
2022/06/22 05:42:28;;;;;;;14.90;5.10;;;19.70;99.90;;;;;;5084398;28;20032;-64
2022/06/22 05:44:56;;;;;;;9.75;4.07;;;19.60;99.90;;;;;;5090901;28;20055;-63
2022/06/22 05:47:27;;;;;;;10.98;4.75;;;19.60;99.90;;;;;;5091202;28;20094;-64
2022/06/22 05:50:21;;;;;;;11.25;4.32;;;19.50;99.90;;;;;;5081981;28;20040;-64
2022/06/22 05:52:58;;;;;;;13.38;4.50;;;19.50;99.90;;;;;;5091151;28;20098;-64
2022/06/22 05:55:35;;;;;;;12.27;4.20;;;19.50;99.90;;;;;;5091404;28;20051;-64
2022/06/22 05:58:10;;;;;;;9.73;4.78;;;19.60;99.90;;;;;;5090385;28;20101;-64
2022/06/22 06:00:44;;;;;;;15.93;4.38;;;19.60;99.90;;;;;;5090743;28;20446;-64
2022/06/22 06:03:26;;;;;;;12.40;4.85;;;19.60;99.90;;;;;;5091240;28;20040;-63
2022/06/22 06:06:10;;;;;;;12.90;4.65;;;19.60;99.90;;;;;;5091298;28;20045;-63
2022/06/22 06:08:44;;;;;;;13.07;4.03;;;19.70;99.90;;;;;;5087563;28;20505;-64
2022/06/22 06:11:26;;;;;;;12.93;4.63;;;19.80;99.90;;;;;;5090522;28;20077;-64
2022/06/22 06:14:05;;;;;;;7.93;4.18;;;19.90;99.90;;;;;;5091053;28;20048;-64
2022/06/22 06:16:43;;;;;;;16.30;5.00;;;19.80;99.90;;;;;;5084070;28;20040;-64
2022/06/22 06:19:10;;;;;;;;;;;19.90;99.90;;;;;;5084447;28;20067;-64
2022/06/22 06:21:37;;;;;;;15.10;4.20;;;20.10;99.90;;;;;;5090112;28;19924;-64
2022/06/22 06:24:14;;;;;;;9.55;3.88;;;20.30;99.90;;;;;;5081764;28;20123;-64
2022/06/22 06:30:03;;;;;;;14.43;4.65;;;20.50;99.90;;;;;;5090631;28;20059;-64
2022/06/22 06:32:46;;;;;;;12.95;4.00;;;20.50;99.90;;;;;;5090847;28;20194;-64
2022/06/22 06:35:25;;;;;;;9.00;3.70;;;20.50;99.90;;;;;;5073857;28;20497;-64
2022/06/22 06:38:23;;;;;;;13.20;4.18;;;20.40;99.90;;;;;;5074397;28;20086;-64
2022/06/22 06:41:22;;;;;;;12.90;4.30;;;20.50;99.90;;;;;;5067816;28;20416;-64
2022/06/22 06:44:04;;;;;;;10.40;3.85;;;20.80;99.90;;;;;;5094226;28;20036;-64
2022/06/22 06:46:42;;;;;;;15.02;4.65;;;21.10;99.90;;;;;;5093863;28;20052;-64
2022/06/22 06:49:30;;;;;;;12.98;3.80;;;21.20;99.90;;;;;;5091482;28;20070;-64
2022/06/22 06:52:14;;;;;;;9.20;3.95;;;21.20;99.90;;;;;;5093361;28;20040;-64
2022/06/22 06:55:14;;;;;;;13.43;4.28;;;21.30;99.90;;;;;;5094098;28;20070;-64
2022/06/22 06:57:53;;;;;;;12.85;4.20;;;21.30;99.90;;;;;;5093795;28;20052;-65
2022/06/22 07:00:20;;;;;;;8.68;3.95;;;21.50;99.90;;;;;;5087712;28;20504;-64
2022/06/22 07:02:53;;;;;;;13.75;4.22;;;21.70;99.90;;;;;;5093746;28;20086;-64
2022/06/22 07:05:21;;;;;;;;;;;21.60;99.90;;;;;;5094181;28;20043;-64
2022/06/22 07:07:54;;;;;;;12.88;4.45;;;21.50;99.90;;;;;;5073875;28;20331;-64
2022/06/22 07:10:34;;;;;;;9.52;3.85;;;21.50;99.90;;;;;;5093077;28;20105;-64
2022/06/22 07:13:06;;;;;;;10.20;3.92;;;21.50;99.90;;;;;;5093808;28;20384;-64
2022/06/22 07:15:36;;;;;;;13.07;4.43;;;21.40;99.90;;;;;;5075484;28;20420;-64
2022/06/22 07:18:16;;;;;;;12.93;4.00;;;21.20;99.90;;;;;;5091024;28;20450;-64
2022/06/22 07:20:48;;;;;;;13.13;4.10;;;21.00;99.90;;;;;;5092867;28;20044;-65
2022/06/22 07:23:27;;;;;;;9.95;4.57;;;20.90;99.90;;;;;;5093367;28;20489;-65
2022/06/22 07:26:24;;;;;;;16.75;5.18;;;20.80;99.90;;;;;;5089833;28;20051;-64
2022/06/22 07:28:58;;;;;;;18.92;5.10;;;20.80;99.90;;;;;;5059840;28;20052;-65
2022/06/22 07:31:30;;;;;;;11.23;4.75;;;20.70;99.90;;;;;;5093005;28;20048;-65
2022/06/22 07:34:00;;;;;;;16.92;4.82;;;20.60;99.90;;;;;;5087253;28;20369;-64
2022/06/22 07:36:35;;;;;;;15.85;5.40;;;20.60;99.90;;;;;;5092836;28;20561;-64
2022/06/22 07:39:09;;;;;;;15.32;4.60;;;20.70;99.90;;;;;;5093232;28;20051;-65
2022/06/22 07:41:36;;;;;;;14.88;5.25;;;20.80;99.90;;;;;;5086328;28;20404;-64
2022/06/22 07:44:28;;;;;;;17.20;5.05;;;20.80;99.90;;;;;;5092515;28;20036;-65
2022/06/22 07:47:08;;;;;;;11.75;4.07;;;20.90;99.90;;;;;;5117685;22;20059;-64
2022/06/22 07:49:44;;;;;;;10.98;4.30;;;21.00;99.90;;;;;;5112862;28;20039;-64
2022/06/22 07:52:14;;;;;;;14.15;5.00;;;21.00;99.90;;;;;;5126198;27;20046;-65
2022/06/22 07:54:53;;;;;;;14.02;4.30;;;21.00;99.90;;;;;;5115754;27;20044;-64
2022/06/22 07:57:49;;;;;;;10.10;4.68;;;21.10;99.90;;;;;;5113265;28;20036;-64
2022/06/22 08:00:19;;;;;;;12.90;4.82;;;21.20;99.90;;;;;;5111590;28;20496;-64
2022/06/22 08:03:00;;;;;;;11.32;4.53;;;21.50;99.90;;;;;;5112828;28;20097;-64
2022/06/22 08:05:33;;;;;;;12.75;4.45;;;21.60;99.90;;;;;;5113007;28;20038;-64
2022/06/22 08:08:10;;;;;;;12.27;4.13;;;21.80;99.90;;;;;;5111978;28;20044;-64
2022/06/22 08:10:45;;;;;;;12.23;5.07;;;21.80;99.90;;;;;;5112564;28;20093;-64
2022/06/22 08:13:12;;;;;;;18.20;4.38;;;21.90;99.90;;;;;;5110032;28;20043;-64
2022/06/22 08:15:42;;;;;;;14.55;5.10;;;22.10;99.90;;;;;;5111738;28;20052;-64
2022/06/22 08:18:10;;;;;;;19.60;4.65;;;22.10;99.90;;;;;;5103546;28;20035;-64
2022/06/22 08:20:38;;;;;;;;;;;22.40;99.90;;;;;;5112130;28;20047;-64
2022/06/22 08:23:06;;;;;;;17.30;4.70;;;22.60;99.90;;;;;;5112357;28;19919;-65
2022/06/22 08:25:55;;;;;;;19.13;4.82;;;22.50;99.90;;;;;;5112726;28;20051;-64
2022/06/22 08:28:24;;;;;;;19.80;5.22;;;22.70;99.90;;;;;;5111407;28;20027;-65
2022/06/22 08:30:53;;;;;;;15.40;5.00;;;22.70;99.90;;;;;;5112042;28;20035;-64
2022/06/22 08:33:43;;;;;;;18.67;4.55;;;22.30;99.90;;;;;;5112419;28;20059;-64
2022/06/22 08:36:31;;;;;;;14.48;4.35;;;22.20;99.90;;;;;;5111548;27;20044;-65
2022/06/22 08:39:06;;;;;;;16.38;5.07;;;22.10;99.90;;;;;;5112360;28;20043;-64
2022/06/22 08:42:04;;;;;;;18.63;4.50;;;22.20;99.90;;;;;;5111937;28;20048;-65
2022/06/22 08:45:15;;;;;;;13.25;4.63;;;22.30;99.90;;;;;;5080014;28;20047;-65
2022/06/22 08:47:47;;;;;;;15.25;4.78;;;22.50;99.90;;;;;;5089607;28;20060;-65
2022/06/22 08:50:43;;;;;;;18.52;5.25;;;22.90;99.90;;;;;;5111742;28;20115;-65
2022/06/22 08:53:51;;;;;;;17.63;4.47;;;23.00;99.90;;;;;;5111919;28;20043;-65
2022/06/22 08:56:48;;;;;;;13.68;4.68;;;23.40;99.90;;;;;;5106044;28;20046;-65
2022/06/22 08:59:39;;;;;;;12.50;4.60;;;23.60;99.90;;;;;;5112140;28;20047;-64
2022/06/22 09:02:34;;;;;;;12.38;4.70;;;23.70;99.90;;;;;;5110276;28;20046;-64
2022/06/22 09:05:27;;;;;;;13.70;4.82;;;23.70;99.90;;;;;;5103767;28;20048;-65
2022/06/22 09:08:06;;;;;;;16.08;4.30;;;23.70;99.90;;;;;;5112102;28;20039;-64
2022/06/22 09:10:45;;;;;;;16.55;5.38;;;23.30;99.90;;;;;;5110433;28;20036;-65
2022/06/22 09:13:31;;;;;;;14.27;4.45;;;23.10;99.90;;;;;;5104901;28;20040;-65
2022/06/22 09:16:23;;;;;;;16.83;4.72;;;23.00;99.90;;;;;;5112339;28;20052;-65
2022/06/22 09:19:15;;;;;;;15.98;4.75;;;23.00;99.90;;;;;;5110678;28;20043;-65
2022/06/22 09:21:55;;;;;;;11.57;4.75;;;23.10;99.90;;;;;;5111172;28;20068;-64
2022/06/22 09:24:58;;;;;;;16.98;4.95;;;23.30;99.90;;;;;;5111901;28;20488;-64
2022/06/22 09:27:39;;;;;;;15.32;5.22;;;23.40;99.90;;;;;;5110746;28;20039;-65
2022/06/22 09:30:50;;;;;;;16.15;4.80;;;23.40;99.90;;;;;;5103872;28;20050;-65
2022/06/22 09:33:32;;;;;;;14.07;4.32;;;23.60;99.90;;;;;;5111726;28;20039;-65
2022/06/22 09:36:18;;;;;;;15.43;5.07;;;23.60;99.90;;;;;;5107218;28;20077;-65
2022/06/22 09:39:06;;;;;;;17.27;4.78;;;23.50;99.90;;;;;;5109774;28;20035;-65
2022/06/22 09:41:51;;;;;;;16.45;5.10;;;23.60;99.90;;;;;;5111546;28;20446;-65
2022/06/22 09:45:12;;;;;;;12.65;4.95;;;23.60;99.90;;;;;;5110495;28;20077;-65
2022/06/22 09:48:08;;;;;;;13.73;4.75;;;23.70;99.90;;;;;;5045552;28;20056;-65
2022/06/22 09:51:11;;;;;;;17.77;5.70;;;24.00;99.90;;;;;;5090824;28;20040;-65
2022/06/22 09:53:53;;;;;;;12.52;4.85;;;24.50;99.90;;;;;;5108619;28;20104;-65
2022/06/22 09:56:31;;;;;;;14.98;5.05;;;24.80;99.90;;;;;;5111338;28;20036;-64
2022/06/22 09:59:17;;;;;;;12.82;4.55;;;24.90;99.90;;;;;;5111514;28;20464;-65
2022/06/22 10:02:13;;;;;;;14.88;5.22;;;25.00;99.90;;;;;;5110195;28;20081;-65
2022/06/22 10:05:07;;;;;;;14.88;4.90;;;25.10;99.90;;;;;;5111416;28;20486;-65
2022/06/22 10:07:57;;;;;;;13.85;4.95;;;25.10;99.90;;;;;;5115207;28;20046;-65
2022/06/22 10:10:29;;;;;;;12.90;4.50;;;25.40;99.90;;;;;;5114174;28;20092;-65
2022/06/22 10:12:58;;;;;;;12.93;5.10;;;25.60;99.90;;;;;;5115009;28;20063;-65
2022/06/22 10:15:55;;;;;;;11.30;4.78;;;25.60;99.90;;;;;;5115020;28;20070;-65
2022/06/22 10:18:44;;;;;;;13.82;4.50;;;25.60;99.90;;;;;;5115091;28;20084;-65
2022/06/22 10:21:19;;;;;;;11.73;4.90;;;25.70;99.90;;;;;;5106013;28;20043;-65
2022/06/22 10:24:10;;;;;;;13.18;4.68;;;25.80;99.90;;;;;;5115013;28;20043;-64
2022/06/22 10:27:06;;;;;;;14.55;4.45;;;25.60;99.90;;;;;;5114865;28;20105;-64
2022/06/22 10:29:53;;;;;;;15.07;5.20;;;25.50;99.90;;;;;;5110857;28;20047;-64
2022/06/22 10:32:44;;;;;;;14.65;5.35;;;25.20;99.90;;;;;;5094257;28;20044;-65
2022/06/22 10:35:23;;;;;;;15.45;5.25;;;24.90;99.90;;;;;;5094366;28;20044;-65
2022/06/22 10:38:17;;;;;;;13.05;4.82;;;24.60;99.90;;;;;;5108283;28;20035;-65
2022/06/22 10:47:14;;;;;;;18.02;5.13;;;24.20;99.90;;;;;;5111389;28;20062;-65
2022/06/22 10:50:02;;;;;;;11.40;4.68;;;24.20;99.90;;;;;;5114547;28;20044;-65
2022/06/22 10:53:15;;;;;;;12.93;5.30;;;24.40;99.90;;;;;;5113714;28;20686;-64
2022/06/22 10:55:51;;;;;;;15.95;5.63;;;24.60;99.90;;;;;;5076934;28;20051;-65
2022/06/22 10:58:39;;;;;;;11.10;4.75;;;24.90;99.90;;;;;;5113705;28;20039;-65
2022/06/22 11:01:50;;;;;;;12.60;4.75;;;25.00;99.90;;;;;;5112932;28;20043;-65
2022/06/22 11:04:26;;;;;;;12.43;5.47;;;25.00;99.90;;;;;;5108230;28;20079;-65
2022/06/22 11:07:32;;;;;;;22.38;5.82;;;25.00;99.90;;;;;;5114235;28;20047;-65
2022/06/22 11:10:41;;;;;;;17.88;5.57;;;24.80;99.90;;;;;;5112564;28;20047;-65
2022/06/22 11:13:36;;;;;;;14.52;6.25;;;24.70;99.90;;;;;;5046927;28;20050;-65
2022/06/22 11:16:39;;;;;;;17.92;5.57;;;24.50;99.90;;;;;;5093885;28;20051;-65
2022/06/22 11:19:35;;;;;;;12.07;5.40;;;24.40;99.90;;;;;;5106359;28;20039;-65
2022/06/22 11:22:23;;;;;;;15.93;5.88;;;24.30;99.90;;;;;;5113300;28;20088;-65
2022/06/22 11:31:17;;;;;;;15.13;5.50;;;24.30;99.90;;;;;;5113247;28;20088;-65
2022/06/22 11:34:10;;;;;;;11.38;5.38;;;24.30;99.90;;;;;;5112486;28;20571;-65
2022/06/22 11:36:47;;;;;;;16.25;5.90;;;24.40;99.90;;;;;;5082536;28;20060;-65
2022/06/22 11:40:06;;;;;;;17.00;6.00;;;24.30;99.90;;;;;;5113597;28;20511;-65
2022/06/22 11:42:32;;;;;;;;;;;24.30;99.90;;;;;;5109179;28;20051;-65
2022/06/22 11:48:40;;;;;;;18.17;6.00;;;24.20;99.90;;;;;;5109336;28;20040;-65
2022/06/22 11:51:15;;;;;;;13.60;5.43;;;24.20;99.90;;;;;;5092417;28;20101;-65
2022/06/22 11:54:02;;;;;;;23.00;5.93;;;24.30;99.90;;;;;;5108334;28;20047;-65
2022/06/22 11:56:49;;;;;;;17.23;6.07;;;24.30;99.90;;;;;;5113167;28;20483;-65
2022/06/22 11:59:55;;;;;;;15.68;5.90;;;24.30;99.90;;;;;;5113038;28;20558;-64
2022/06/22 12:02:53;;;;;;;14.18;6.25;;;24.20;99.90;;;;;;5111932;28;20049;-64
2022/06/22 12:05:41;;;;;;;17.38;6.20;;;24.40;99.90;;;;;;5092572;28;20309;-65
2022/06/22 12:08:57;;;;;;;15.10;6.65;;;24.50;99.90;;;;;;5092789;28;20455;-65
2022/06/22 12:11:49;;;;;;;22.70;6.97;;;24.40;99.90;;;;;;5086135;28;20059;-65
2022/06/22 12:17:38;;;;;;;15.25;6.25;;;25.30;99.90;;;;;;5111583;28;20040;-65
2022/06/22 12:20:27;;;;;;;17.15;7.30;;;25.70;99.90;;;;;;5104345;28;20096;-65
2022/06/22 12:22:56;;;;;;;15.48;6.78;;;25.50;99.90;;;;;;5112928;28;20523;-65
2022/06/22 12:26:01;;;;;;;17.48;6.80;;;25.30;99.90;;;;;;5107390;28;20449;-65
2022/06/22 12:29:01;;;;;;;17.13;6.97;;;25.30;99.90;;;;;;5109060;28;20039;-65
2022/06/22 12:31:41;;;;;;;13.93;5.70;;;25.20;99.90;;;;;;5091964;28;20048;-65
2022/06/22 12:34:42;;;;;;;22.13;6.18;;;25.20;99.90;;;;;;5092267;28;20314;-65
2022/06/22 12:37:21;;;;;;;16.60;6.45;;;25.10;99.90;;;;;;5097229;28;20441;-65
2022/06/22 12:39:51;;;;;;;17.90;6.60;;;25.20;99.90;;;;;;5112260;28;20089;-65
2022/06/22 12:42:53;;;;;;;19.10;6.65;;;24.90;99.90;;;;;;5111613;28;20093;-65
2022/06/22 12:45:50;;;;;;;14.10;6.25;;;25.00;99.90;;;;;;5068793;28;20055;-65
2022/06/22 12:48:38;;;;;;;15.20;6.65;;;25.00;99.90;;;;;;5106083;28;20092;-65
2022/06/22 12:51:18;;;;;;;24.48;7.35;;;25.00;99.90;;;;;;5091538;28;20032;-65
2022/06/22 12:54:15;;;;;;;18.38;6.20;;;24.90;99.90;;;;;;5091766;28;20044;-65
2022/06/22 12:57:25;;;;;;;16.23;6.72;;;24.90;99.90;;;;;;5095306;28;20040;-64
2022/06/22 13:00:01;;;;;;;13.50;6.60;;;24.80;99.90;;;;;;5078034;28;20056;-65
2022/06/22 13:02:30;;;;;;;20.25;7.38;;;24.70;99.90;;;;;;5091877;28;20051;-65
2022/06/22 13:05:10;;;;;;;17.33;6.40;;;24.60;99.90;;;;;;5092761;28;20105;-65
2022/06/22 13:07:43;;;;;;;21.13;6.88;;;24.80;99.90;;;;;;5111914;28;20045;-65
2022/06/22 13:10:21;;;;;;;19.38;7.13;;;25.10;99.90;;;;;;5111268;28;20036;-65
2022/06/22 13:12:53;;;;;;;17.75;7.68;;;25.50;99.90;;;;;;5111933;28;20035;-65
2022/06/22 13:15:43;;;;;;;16.23;6.65;;;26.00;99.90;;;;;;5110762;28;20040;-65
2022/06/22 13:18:21;;;;;;;21.42;6.28;;;26.40;99.90;;;;;;5096735;28;20473;-65
2022/06/22 13:20:54;;;;;;;13.80;7.03;;;26.50;99.90;;;;;;5111436;28;20093;-65
2022/06/22 13:23:44;;;;;;;17.08;6.72;;;26.70;99.90;;;;;;5110772;28;20044;-65
2022/06/22 13:26:28;;;;;;;23.92;6.75;;;26.80;99.90;;;;;;5104634;28;20487;-65
2022/06/22 13:29:13;;;;;;;23.10;6.82;;;26.70;99.90;;;;;;5111578;28;20096;-65
2022/06/22 13:31:43;;;;;;;17.73;6.35;;;26.30;99.90;;;;;;5110607;28;20043;-65
2022/06/22 13:34:15;;;;;;;14.05;6.45;;;26.00;99.90;;;;;;5093761;28;20088;-65
2022/06/22 13:37:09;;;;;;;19.10;6.97;;;25.80;99.90;;;;;;5111343;28;20035;-65
2022/06/22 13:39:51;;;;;;;13.10;6.43;;;25.70;99.90;;;;;;5111277;28;20096;-65
2022/06/22 13:42:54;;;;;;;17.92;6.55;;;25.80;99.90;;;;;;5115805;28;20043;-65
2022/06/22 13:45:30;;;;;;;19.70;6.40;;;26.10;99.90;;;;;;5116224;28;20484;-63
2022/06/22 13:48:15;;;;;;;20.65;6.82;;;26.10;99.90;;;;;;5071701;28;20049;-65
2022/06/22 13:51:18;;;;;;;19.40;6.45;;;26.00;99.90;;;;;;5070967;28;20036;-64
2022/06/22 13:54:15;;;;;;;24.58;7.40;;;26.10;99.90;;;;;;5075186;28;20478;-64
2022/06/22 13:56:54;;;;;;;17.42;6.78;;;26.00;99.90;;;;;;5074961;28;20052;-64
2022/06/22 13:59:34;;;;;;;21.48;7.65;;;25.90;99.90;;;;;;5074240;28;20046;-64
2022/06/22 14:02:09;;;;;;;13.48;7.57;;;25.70;99.90;;;;;;5066197;28;20040;-64
2022/06/22 14:04:46;;;;;;;21.75;6.97;;;25.60;99.90;;;;;;5074865;28;20048;-64
2022/06/22 14:07:22;;;;;;;19.90;7.07;;;25.50;99.90;;;;;;5071054;28;20049;-64
2022/06/22 14:09:56;;;;;;;16.88;8.40;;;25.30;99.90;;;;;;5073084;28;20425;-64
2022/06/22 14:12:31;;;;;;;18.30;7.93;;;24.90;99.90;;;;;;5074736;28;20055;-65
2022/06/22 14:15:17;;;;;;;23.48;7.80;;;24.80;99.90;;;;;;5073195;28;20037;-65